< < Back
Terminal Aerodrome Forecast


Current Version              Previous Versions:   1  2  3  4  5  6  7  8  9  

Terminal Aerodrome Forecast

927
FTUS42 KCAE 300939 AAD
TAFCAE
TAF AMD
KCAE 300939Z 3010/0106 VRB03KT P6SM BKN007
      TEMPO 3010/3012 4SM BR OVC003
     FM301300 00000KT 6SM BR BKN250
     FM301500 14008KT P6SM SCT040 SCT250=

Latest METAR

622
SAUS80 KWBC 301300
MTRCAE
METAR KCAE 301256Z 14007KT 6SM BR OVC005 20/18 A3000 RMK AO2 SLP157
T02000178


USA.gov is the U.S. government's official web portal to all federal, state and local government web resources and services.